Time;durP1;ratioP1;P1;durP2;ratioP2;P2;SDS_P1;SDS_P2;PMS_P1;PMS_P2;Temp;Humidity;BMP_temperature;BMP_pressure;BME280_temperature;BME280_humidity;BME280_pressure;Samples;Min_cycle;Max_cycle;Signal;HPM_P1;HPM_P2
2023/06/24 00:01:31;;;;;;;22.38;11.50;;;;;;;18.47;100.00;102258.66;5104399;28;20032;-67
2023/06/24 00:03:57;;;;;;;22.52;10.90;;;;;;;18.58;100.00;102258.56;5105033;28;20392;-68
2023/06/24 00:06:25;;;;;;;21.33;11.25;;;;;;;18.56;100.00;102257.69;5103313;28;20078;-67
2023/06/24 00:08:52;;;;;;;21.75;10.82;;;;;;;18.56;100.00;102258.56;5105824;28;20398;-65
2023/06/24 00:11:18;;;;;;;22.00;10.85;;;;;;;18.49;100.00;102259.50;5102296;28;20045;-63
2023/06/24 00:13:44;;;;;;;24.23;11.60;;;;;;;18.48;100.00;102260.44;5098481;28;20040;-66
2023/06/24 00:16:10;;;;;;;22.83;11.70;;;;;;;18.40;100.00;102263.13;5105345;28;20099;-66
2023/06/24 00:18:36;;;;;;;21.10;11.15;;;;;;;18.45;100.00;102266.69;5103531;28;20028;-65
2023/06/24 00:21:03;;;;;;;21.88;11.25;;;;;;;18.32;100.00;102267.66;5104164;28;20055;-64
2023/06/24 00:23:34;;;;;;;21.33;10.98;;;;;;;18.21;100.00;102265.03;5104211;28;20462;-64
2023/06/24 00:26:00;;;;;;;22.98;11.93;;;;;;;18.14;100.00;102267.75;5103774;28;20020;-67
2023/06/24 00:28:25;;;;;;;22.17;11.60;;;;;;;18.06;100.00;102268.66;5105090;28;20039;-66
2023/06/24 00:30:50;;;;;;;24.27;12.18;;;;;;;17.99;100.00;102277.63;5102283;28;20025;-65
2023/06/24 00:33:19;;;;;;;22.42;11.88;;;;;;;17.90;100.00;102273.19;5105780;28;20074;-65
2023/06/24 00:35:45;;;;;;;22.15;11.88;;;;;;;17.87;100.00;102273.19;5098330;28;20024;-67
2023/06/24 00:38:10;;;;;;;22.90;12.10;;;;;;;17.77;100.00;102274.97;5105040;28;20028;-67
2023/06/24 00:40:37;;;;;;;22.02;11.55;;;;;;;17.77;100.00;102282.13;5102879;28;20032;-66
2023/06/24 00:43:03;;;;;;;22.27;11.45;;;;;;;17.83;100.00;102276.75;5103951;28;20119;-66
2023/06/24 00:45:31;;;;;;;21.50;11.45;;;;;;;17.81;100.00;102266.94;5103867;28;20153;-67
2023/06/24 00:48:00;;;;;;;22.80;11.65;;;;;;;17.85;100.00;102274.06;5104914;28;20172;-63
2023/06/24 00:50:26;;;;;;;21.90;11.30;;;;;;;17.75;100.00;102283.88;5103075;28;20020;-66
2023/06/24 00:52:52;;;;;;;22.30;11.95;;;;;;;17.71;100.00;102287.50;5103681;28;20024;-63
2023/06/24 00:55:20;;;;;;;21.33;11.57;;;;;;;17.60;100.00;102284.81;5103780;28;20027;-63
2023/06/24 00:57:51;;;;;;;24.10;12.15;;;;;;;17.59;100.00;102285.72;5084651;28;20429;-62
2023/06/24 01:00:21;;;;;;;22.25;11.57;;;;;;;17.56;100.00;102281.28;5103839;28;20022;-67
2023/06/24 01:02:48;;;;;;;20.85;10.95;;;;;;;17.61;100.00;102289.28;5102390;28;20032;-64
2023/06/24 01:05:14;;;;;;;21.55;10.93;;;;;;;17.55;100.00;102270.59;5104577;28;20030;-65
2023/06/24 01:07:41;;;;;;;21.77;10.85;;;;;;;17.51;100.00;102274.16;5101998;28;20020;-67
2023/06/24 01:10:08;;;;;;;21.42;11.23;;;;;;;17.45;100.00;102274.19;5104970;28;20478;-65
2023/06/24 01:12:38;;;;;;;21.95;11.00;;;;;;;17.33;100.00;102275.97;5097710;28;20078;-66
2023/06/24 01:15:06;;;;;;;21.90;11.07;;;;;;;17.19;100.00;102272.41;5097497;28;20032;-68
2023/06/24 01:17:50;;;;;;;22.08;11.50;;;;;;;17.13;100.00;102275.09;5104830;28;20067;-65
2023/06/24 01:20:36;;;;;;;21.75;11.05;;;;;;;17.00;100.00;102269.75;5099887;28;20391;-66
2023/06/24 01:23:38;;;;;;;21.52;10.95;;;;;;;16.87;100.00;102266.16;5101442;28;20582;-67
2023/06/24 01:26:42;;;;;;;22.27;11.18;;;;;;;16.89;100.00;102266.16;5097497;28;20047;-67
2023/06/24 01:29:46;;;;;;;23.27;11.70;;;;;;;16.83;100.00;102267.03;5097716;28;20028;-66
2023/06/24 01:32:34;;;;;;;23.13;11.93;;;;;;;16.91;100.00;102256.41;5022356;28;20057;-65
2023/06/24 01:35:06;;;;;;;22.17;11.05;;;;;;;16.87;100.00;102254.56;5093542;28;20445;-67
2023/06/24 01:37:43;;;;;;;21.42;11.68;;;;;;;16.76;100.00;102256.34;5086136;28;20464;-67
2023/06/24 01:40:14;;;;;;;22.42;11.35;;;;;;;16.59;100.00;102257.22;5097793;28;20479;-65
2023/06/24 01:42:42;;;;;;;22.50;11.80;;;;;;;16.61;100.00;102258.09;5104542;28;20035;-68
2023/06/24 01:45:13;;;;;;;22.13;11.63;;;;;;;16.59;100.00;102254.56;5101340;28;20032;-67
2023/06/24 01:47:43;;;;;;;21.13;11.45;;;;;;;16.50;100.00;102260.75;5097516;28;20032;-67
2023/06/24 01:50:11;;;;;;;22.23;11.93;;;;;;;16.51;100.00;102258.97;5097667;28;20024;-67
2023/06/24 01:52:37;;;;;;;23.23;11.95;;;;;;;16.62;100.00;102253.69;5097419;28;20031;-67
2023/06/24 01:55:07;;;;;;;21.77;11.30;;;;;;;16.55;100.00;102261.66;5104293;28;20035;-66
2023/06/24 01:57:34;;;;;;;23.95;11.40;;;;;;;16.55;100.00;102253.63;5101091;28;20035;-66
2023/06/24 02:00:01;;;;;;;21.85;11.48;;;;;;;16.51;100.00;102262.56;5104373;28;20422;-67
2023/06/24 02:02:28;;;;;;;23.05;11.43;;;;;;;16.45;100.00;102251.84;5101718;28;20505;-66
2023/06/24 02:04:56;;;;;;;23.02;10.98;;;;;;;16.34;100.00;102254.50;5102929;28;20043;-66
2023/06/24 02:07:23;;;;;;;23.58;10.95;;;;;;;16.27;100.00;102249.16;5102690;28;20035;-67
2023/06/24 02:09:50;;;;;;;22.40;11.27;;;;;;;16.20;100.00;102248.22;5102233;28;20540;-67
2023/06/24 02:12:17;;;;;;;23.80;10.98;;;;;;;16.19;100.00;102250.00;5103278;28;20050;-68
2023/06/24 02:14:43;;;;;;;22.55;11.13;;;;;;;16.24;100.00;102247.34;5101959;28;20029;-69
2023/06/24 02:17:11;;;;;;;21.80;11.27;;;;;;;16.21;100.00;102245.56;5108275;28;20023;-69
2023/06/24 02:19:39;;;;;;;21.83;11.13;;;;;;;16.22;100.00;102246.44;5100809;28;20457;-69
2023/06/24 02:22:09;;;;;;;21.70;10.90;;;;;;;16.15;100.00;102241.97;5100479;28;20040;-69
2023/06/24 02:24:37;;;;;;;22.05;11.30;;;;;;;16.13;100.00;102239.31;5100453;28;20501;-69
2023/06/24 02:27:03;;;;;;;21.88;11.38;;;;;;;16.10;100.00;102249.97;5107735;28;20046;-69
2023/06/24 02:29:30;;;;;;;21.23;10.88;;;;;;;16.07;100.00;102246.41;5105309;28;20035;-69
2023/06/24 02:31:55;;;;;;;21.85;10.85;;;;;;;16.01;100.00;102245.47;5106700;28;20031;-69
2023/06/24 02:34:23;;;;;;;22.30;10.90;;;;;;;16.03;100.00;102249.06;5106140;28;20027;-69
2023/06/24 02:36:49;;;;;;;23.95;11.38;;;;;;;15.96;100.00;102252.59;5105921;28;20589;-69
2023/06/24 02:39:15;;;;;;;21.95;10.55;;;;;;;15.93;100.00;102247.25;5106882;28;20055;-69
2023/06/24 02:41:41;;;;;;;21.85;10.70;;;;;;;15.88;100.00;102248.09;5104287;28;20028;-67
2023/06/24 02:44:06;;;;;;;21.88;11.43;;;;;;;15.78;100.00;102236.47;5107780;28;20086;-69
2023/06/24 02:46:34;;;;;;;22.40;10.85;;;;;;;15.76;100.00;102249.78;5104381;28;20033;-69
2023/06/24 02:49:00;;;;;;;22.10;11.05;;;;;;;15.82;100.00;102248.97;5106847;28;20035;-69
2023/06/24 02:51:26;;;;;;;21.45;10.80;;;;;;;15.82;100.00;102249.84;5105715;28;20027;-69
2023/06/24 02:53:52;;;;;;;21.50;10.60;;;;;;;15.84;100.00;102247.19;5106012;28;20386;-69
2023/06/24 02:56:20;;;;;;;21.60;10.80;;;;;;;15.81;100.00;102252.50;5106365;28;20028;-66
2023/06/24 02:58:47;;;;;;;23.15;10.85;;;;;;;15.74;100.00;102258.66;5104990;28;20028;-67
2023/06/24 03:01:14;;;;;;;22.80;11.05;;;;;;;15.62;100.00;102262.16;5106834;28;20035;-67
2023/06/24 03:03:41;;;;;;;22.48;10.85;;;;;;;15.52;100.00;102258.53;5103726;28;20478;-68
2023/06/24 03:06:07;;;;;;;22.75;10.68;;;;;;;15.51;100.00;102270.09;5107531;28;20028;-67
2023/06/24 03:08:32;;;;;;;21.90;11.20;;;;;;;15.50;100.00;102274.50;5104001;28;20078;-67
2023/06/24 03:10:58;;;;;;;23.65;11.07;;;;;;;15.56;100.00;102284.31;5106444;28;20020;-67
2023/06/24 03:13:24;;;;;;;22.27;11.68;;;;;;;15.49;100.00;102274.50;5105289;28;20085;-67
2023/06/24 03:15:50;;;;;;;21.63;11.45;;;;;;;15.55;100.00;102274.53;5086845;28;20491;-68
2023/06/24 03:18:16;;;;;;;22.63;11.32;;;;;;;15.45;100.00;102267.38;5106189;28;20048;-66
2023/06/24 03:20:41;;;;;;;21.30;11.70;;;;;;;15.42;100.00;102265.59;5103926;28;20048;-66
2023/06/24 03:23:07;;;;;;;21.88;11.30;;;;;;;15.38;100.00;102268.19;5106977;28;20040;-67
2023/06/24 03:25:34;;;;;;;21.30;11.45;;;;;;;15.34;100.00;102265.53;5068435;28;20082;-67
2023/06/24 03:28:07;;;;;;;22.30;11.65;;;;;;;15.25;100.00;102267.25;5088222;28;20107;-67
2023/06/24 03:30:33;;;;;;;22.70;11.50;;;;;;;15.20;100.00;102263.66;5103557;28;20535;-66
2023/06/24 03:32:58;;;;;;;21.48;11.50;;;;;;;15.22;100.00;102265.44;5105971;28;20032;-67
2023/06/24 03:35:23;;;;;;;22.67;11.00;;;;;;;15.20;100.00;102263.66;5104948;28;20023;-68
2023/06/24 03:37:49;;;;;;;22.77;11.23;;;;;;;15.26;100.00;102264.59;5104518;28;20027;-67
2023/06/24 03:40:14;;;;;;;21.88;11.25;;;;;;;15.33;100.00;102254.84;5105934;28;20023;-64
2023/06/24 03:42:39;;;;;;;21.30;11.15;;;;;;;15.23;100.00;102258.34;5103325;28;20035;-65
2023/06/24 03:45:05;;;;;;;20.92;10.63;;;;;;;15.28;100.00;102257.50;5106548;28;20027;-64
2023/06/24 03:47:31;;;;;;;21.30;10.80;;;;;;;15.29;100.00;102261.03;5103394;28;20043;-63
2023/06/24 03:49:56;;;;;;;20.70;10.55;;;;;;;15.31;100.00;102267.28;5105406;28;20032;-62
2023/06/24 03:52:22;;;;;;;22.27;10.90;;;;;;;15.26;100.00;102266.34;5104911;28;20041;-67
2023/06/24 03:54:47;;;;;;;21.27;10.73;;;;;;;15.17;100.00;102267.16;5104334;28;20072;-66
2023/06/24 03:57:13;;;;;;;22.27;10.50;;;;;;;15.19;100.00;102268.09;5105884;28;20402;-63
2023/06/24 03:59:38;;;;;;;22.02;10.85;;;;;;;15.15;100.00;102276.94;5102735;28;20020;-64
2023/06/24 04:02:08;;;;;;;21.83;10.82;;;;;;;15.18;100.00;102276.94;5106086;28;20175;-66
2023/06/24 04:04:34;;;;;;;21.23;10.60;;;;;;;15.20;100.00;102279.63;5102743;28;20031;-67
2023/06/24 04:07:00;;;;;;;21.35;10.73;;;;;;;15.25;100.00;102275.25;5105231;28;20031;-67
2023/06/24 04:09:25;;;;;;;22.17;11.13;;;;;;;15.25;100.00;102284.13;5104017;28;20038;-64
2023/06/24 04:11:50;;;;;;;22.48;11.82;;;;;;;15.20;100.00;102285.84;5103823;28;20154;-64
2023/06/24 04:14:16;;;;;;;22.08;11.25;;;;;;;15.27;100.00;102277.00;5105151;28;20073;-66
2023/06/24 04:16:41;;;;;;;23.13;11.88;;;;;;;15.33;100.00;102274.41;5102721;28;20073;-67
2023/06/24 04:19:06;;;;;;;23.38;12.05;;;;;;;15.38;100.00;102273.53;5087631;28;20039;-66
2023/06/24 04:21:32;;;;;;;22.05;11.50;;;;;;;15.40;100.00;102271.78;5102578;28;20102;-67
2023/06/24 04:23:57;;;;;;;21.17;10.85;;;;;;;15.44;100.00;102276.25;5104782;28;20028;-67
2023/06/24 04:26:22;;;;;;;21.90;11.50;;;;;;;15.50;100.00;102276.28;5103917;28;20034;-67
2023/06/24 04:28:48;;;;;;;21.25;11.30;;;;;;;15.53;100.00;102281.66;5103536;28;20028;-62
2023/06/24 04:31:13;;;;;;;22.38;11.52;;;;;;;15.49;100.00;102277.16;5105258;28;20030;-67
2023/06/24 04:33:39;;;;;;;22.73;13.05;;;;;;;15.57;100.00;102277.25;5084063;28;20368;-67
2023/06/24 04:36:04;;;;;;;21.85;11.90;;;;;;;15.62;100.00;102278.16;5105864;28;20028;-64
2023/06/24 04:38:30;;;;;;;23.02;12.48;;;;;;;15.73;100.00;102272.84;5102176;28;20119;-68
2023/06/24 04:40:57;;;;;;;23.02;12.45;;;;;;;15.73;100.00;102271.09;5103982;28;20081;-68
2023/06/24 04:43:22;;;;;;;22.90;12.70;;;;;;;15.75;100.00;102271.13;5103803;28;20027;-68
2023/06/24 04:45:47;;;;;;;23.88;12.70;;;;;;;15.75;100.00;102271.13;5102948;28;20535;-69
2023/06/24 04:48:13;;;;;;;23.67;13.00;;;;;;;15.77;100.00;102272.00;5105000;28;20028;-69
2023/06/24 04:50:38;;;;;;;23.98;13.38;;;;;;;15.83;100.00;102280.97;5102019;28;20072;-69
2023/06/24 04:53:04;;;;;;;23.88;13.40;;;;;;;15.90;100.00;102273.91;5104995;28;20080;-69
2023/06/24 04:55:29;;;;;;;24.58;14.00;;;;;;;15.97;100.00;102278.34;5102525;28;20024;-69
2023/06/24 04:57:55;;;;;;;25.05;13.73;;;;;;;15.99;100.00;102273.94;5085645;28;20036;-69
2023/06/24 05:00:23;;;;;;;25.05;14.05;;;;;;;16.08;100.00;102274.88;5103657;28;20038;-69
2023/06/24 05:02:48;;;;;;;25.25;14.45;;;;;;;16.13;100.00;102273.09;5102553;28;20114;-69
2023/06/24 05:05:14;;;;;;;25.38;14.43;;;;;;;16.16;100.00;102270.44;5104852;28;20101;-69
2023/06/24 05:07:39;;;;;;;26.05;15.38;;;;;;;16.17;100.00;102278.44;5083515;28;20467;-69
2023/06/24 05:10:05;;;;;;;26.08;16.55;;;;;;;16.21;100.00;102269.56;5104673;28;20039;-69
2023/06/24 05:12:30;;;;;;;25.77;15.85;;;;;;;16.22;100.00;102270.44;5102280;28;20028;-69
2023/06/24 05:14:56;;;;;;;27.13;16.38;;;;;;;16.26;100.00;102269.59;5103703;28;20115;-69
2023/06/24 05:17:21;;;;;;;26.25;16.17;;;;;;;16.25;100.00;102275.81;5103237;28;20031;-68
2023/06/24 05:19:46;;;;;;;26.15;16.15;;;;;;;16.29;100.00;102272.25;5102290;28;20028;-69
2023/06/24 05:22:12;;;;;;;24.65;15.65;;;;;;;16.35;100.00;102271.38;5104338;28;20075;-68
2023/06/24 05:24:37;;;;;;;25.52;15.88;;;;;;;16.39;100.00;102270.50;5101519;28;20073;-69
2023/06/24 05:27:06;;;;;;;25.77;16.27;;;;;;;16.43;100.00;102266.09;5104392;28;20027;-67
2023/06/24 05:29:32;;;;;;;26.30;16.00;;;;;;;16.47;100.00;102276.78;5101733;28;20119;-64
2023/06/24 05:31:58;;;;;;;30.23;15.88;;;;;;;16.51;100.00;102277.66;5103777;28;20024;-67
2023/06/24 05:34:24;;;;;;;26.13;15.73;;;;;;;16.50;100.00;102275.91;5102799;28;20080;-64
2023/06/24 05:36:49;;;;;;;24.50;15.65;;;;;;;16.52;100.00;102280.31;5102628;28;20421;-67
2023/06/24 05:39:15;;;;;;;25.38;15.70;;;;;;;16.55;100.00;102290.13;5104505;28;20462;-64
2023/06/24 05:41:40;;;;;;;26.98;15.45;;;;;;;16.56;100.00;102281.25;5101024;28;20055;-67
2023/06/24 05:44:10;;;;;;;27.65;16.98;;;;;;;16.59;100.00;102281.25;5104265;28;20122;-64
2023/06/24 05:46:35;;;;;;;24.95;15.52;;;;;;;16.62;100.00;102275.91;5101482;28;20058;-67
2023/06/24 05:49:01;;;;;;;26.08;16.42;;;;;;;16.68;100.00;102283.91;5103848;28;20036;-63
2023/06/24 05:51:27;;;;;;;27.17;16.23;;;;;;;16.73;100.00;102283.91;5105717;28;20030;-67
2023/06/24 05:53:52;;;;;;;26.13;15.70;;;;;;;16.80;100.00;102291.06;5102171;28;20031;-65
2023/06/24 05:56:18;;;;;;;25.17;15.77;;;;;;;16.85;100.00;102294.63;5105496;28;20471;-67
2023/06/24 05:58:43;;;;;;;24.83;15.18;;;;;;;16.93;100.00;102288.44;5073488;28;20088;-63
2023/06/24 06:01:12;;;;;;;25.17;15.20;;;;;;;16.99;100.00;102292.00;5105174;28;20517;-63
2023/06/24 06:03:37;;;;;;;25.30;15.40;;;;;;;17.06;100.00;102285.75;5108149;28;20538;-68
2023/06/24 06:06:03;;;;;;;26.00;15.15;;;;;;;17.11;100.00;102283.13;5105595;28;20040;-65
2023/06/24 06:08:28;;;;;;;24.15;14.40;;;;;;;17.16;100.00;102283.13;5107830;28;20028;-62
2023/06/24 06:10:54;;;;;;;26.27;14.68;;;;;;;17.22;100.00;102285.78;5104637;28;20075;-62
2023/06/24 06:13:19;;;;;;;24.40;14.13;;;;;;;17.27;100.00;102289.34;5108118;28;20192;-69
2023/06/24 06:15:44;;;;;;;24.20;13.57;;;;;;;17.30;100.00;102286.66;5107712;28;20114;-67
2023/06/24 06:18:10;;;;;;;24.80;13.60;;;;;;;17.40;100.00;102296.47;5086368;28;20050;-70
2023/06/24 06:20:35;;;;;;;24.77;13.68;;;;;;;17.46;100.00;102284.88;5107108;28;20040;-67
2023/06/24 06:23:01;;;;;;;24.65;12.98;;;;;;;17.53;100.00;102291.06;5106245;28;20039;-64
2023/06/24 06:25:26;;;;;;;23.42;12.88;;;;;;;17.56;100.00;102293.75;5105662;28;20111;-62
2023/06/24 06:27:52;;;;;;;24.50;12.70;;;;;;;17.64;100.00;102299.09;5104325;28;20031;-66
2023/06/24 06:30:17;;;;;;;23.20;12.27;;;;;;;17.68;100.00;102291.06;5107320;28;20394;-67
2023/06/24 06:32:43;;;;;;;22.75;12.43;;;;;;;17.73;100.00;102301.75;5104378;28;20077;-62
2023/06/24 06:35:08;;;;;;;22.00;11.85;;;;;;;17.79;100.00;102296.38;5107903;28;20048;-63
2023/06/24 06:37:34;;;;;;;22.85;11.75;;;;;;;17.90;100.00;102294.59;5104965;28;20425;-63
2023/06/24 06:39:59;;;;;;;23.75;11.60;;;;;;;17.96;100.00;102293.69;5106988;28;20016;-66
2023/06/24 06:42:25;;;;;;;22.95;11.68;;;;;;;18.04;100.00;102302.59;5105208;28;20459;-71
2023/06/24 06:44:50;;;;;;;23.90;11.52;;;;;;;18.14;100.00;102300.75;5106125;28;20432;-68
2023/06/24 06:47:15;;;;;;;21.90;10.18;;;;;;;18.20;100.00;102307.84;5106052;28;20015;-70
2023/06/24 06:49:41;;;;;;;22.27;11.13;;;;;;;18.25;100.00;102306.06;5104931;28;20558;-70
2023/06/24 06:52:07;;;;;;;21.80;10.25;;;;;;;18.28;100.00;102300.69;5103697;28;20028;-68
2023/06/24 06:54:32;;;;;;;21.63;10.55;;;;;;;18.36;100.00;102301.53;5088800;28;20034;-68
2023/06/24 06:57:04;;;;;;;21.75;10.30;;;;;;;18.43;100.00;102308.63;5104165;28;20114;-68
2023/06/24 06:59:31;;;;;;;21.17;10.02;;;;;;;18.49;100.00;102310.38;5100764;28;20020;-69
2023/06/24 07:01:56;;;;;;;21.65;10.10;;;;;;;18.56;100.00;102316.59;5088718;28;20024;-68
2023/06/24 07:04:22;;;;;;;21.05;9.70;;;;;;;18.64;100.00;102321.00;5104262;28;20035;-68
2023/06/24 07:06:47;;;;;;;21.38;10.20;;;;;;;18.70;100.00;102314.75;5088187;28;20028;-68
2023/06/24 07:09:13;;;;;;;21.25;10.20;;;;;;;18.80;100.00;102321.81;5105025;28;20032;-65
2023/06/24 07:11:38;;;;;;;21.20;9.70;;;;;;;18.84;100.00;102324.47;5105074;28;20103;-66
2023/06/24 07:14:04;;;;;;;20.88;9.50;;;;;;;18.90;100.00;102324.44;5106497;28;20115;-64
2023/06/24 07:16:29;;;;;;;20.65;9.25;;;;;;;18.98;100.00;102325.28;5103741;28;20475;-65
2023/06/24 07:18:54;;;;;;;21.73;9.63;;;;;;;19.01;100.00;102324.38;5081268;28;20381;-66
2023/06/24 07:21:20;;;;;;;20.58;9.18;;;;;;;19.04;100.00;102327.03;5106097;28;20215;-66
2023/06/24 07:23:46;;;;;;;20.30;9.00;;;;;;;19.10;100.00;102330.53;5104910;28;20391;-65
2023/06/24 07:26:11;;;;;;;21.40;9.63;;;;;;;19.24;100.00;102321.53;5105052;28;20032;-66
2023/06/24 07:28:37;;;;;;;21.80;9.73;;;;;;;19.35;100.00;102324.97;5105775;28;20110;-66
2023/06/24 07:31:02;;;;;;;21.13;8.82;;;;;;;19.50;100.00;102316.81;5103866;28;20020;-66
2023/06/24 07:33:30;;;;;;;20.02;8.02;;;;;;;19.59;100.00;102317.63;5106742;28;20030;-64
2023/06/24 07:35:56;;;;;;;20.75;7.53;;;;;;;19.71;100.00;102317.50;5099134;28;20028;-66
2023/06/24 07:38:21;;;;;;;19.52;7.35;;;;;;;19.80;100.00;102328.16;5106347;28;20163;-66
2023/06/24 07:40:46;;;;;;;19.45;7.45;;;;;;;19.91;100.00;102313.75;5104120;28;20027;-67
2023/06/24 07:43:12;;;;;;;19.05;6.00;;;;;;;20.01;100.00;102320.78;5104687;28;20036;-66
2023/06/24 07:45:37;;;;;;;16.63;5.15;;;;;;;20.09;100.00;102321.56;5105579;28;20320;-67
2023/06/24 07:48:02;;;;;;;17.00;5.43;;;;;;;20.15;100.00;102318.81;5103348;28;20020;-67
2023/06/24 07:50:28;;;;;;;17.25;5.40;;;;;;;20.15;100.00;102321.50;5106481;28;20114;-66
2023/06/24 07:52:53;;;;;;;17.45;5.18;;;;;;;20.27;99.50;102327.59;5103200;28;20039;-65
2023/06/24 07:55:18;;;;;;;14.50;4.72;;;;;;;20.44;99.65;102314.84;5105580;28;20102;-65
2023/06/24 07:57:47;;;;;;;16.00;4.80;;;;;;;20.47;89.64;102320.16;5104314;28;20022;-65
2023/06/24 08:00:13;;;;;;;14.20;4.25;;;;;;;20.50;80.01;102322.84;5104725;28;20040;-65
2023/06/24 08:02:40;;;;;;;16.55;5.28;;;;;;;20.54;82.65;102323.66;5104748;28;20028;-66
2023/06/24 08:05:05;;;;;;;16.23;4.90;;;;;;;20.61;86.82;102320.00;5103811;28;20059;-66
2023/06/24 08:07:31;;;;;;;16.48;5.30;;;;;;;20.77;86.92;102322.50;5106108;28;20063;-65
2023/06/24 08:09:56;;;;;;;16.63;5.13;;;;;;;20.93;95.95;102324.03;5102489;28;20104;-66
2023/06/24 08:12:21;;;;;;;17.38;4.80;;;;;;;20.98;81.44;102315.88;5104781;28;20036;-65
2023/06/24 08:14:47;;;;;;;15.05;4.82;;;;;;;21.05;80.80;102318.44;5103729;28;20043;-66
2023/06/24 08:17:12;;;;;;;16.05;5.03;;;;;;;21.08;78.71;102322.88;5104150;28;20028;-65
2023/06/24 08:19:37;;;;;;;14.65;4.57;;;;;;;21.19;82.18;102320.91;5104903;28;20024;-67
2023/06/24 08:22:04;;;;;;;15.57;4.90;;;;;;;21.21;73.91;102318.19;5102452;28;20086;-65
2023/06/24 08:24:29;;;;;;;12.95;4.45;;;;;;;21.29;76.37;102321.66;5105805;28;20032;-71
2023/06/24 08:26:54;;;;;;;15.73;4.50;;;;;;;21.50;84.26;102317.69;5102157;28;20074;-68
2023/06/24 08:29:20;;;;;;;14.00;4.35;;;;;;;21.59;74.66;102309.47;5101074;28;20074;-66
2023/06/24 08:31:45;;;;;;;12.52;3.88;;;;;;;21.72;74.26;102301.16;5105131;28;20077;-65
2023/06/24 08:34:10;;;;;;;13.57;4.40;;;;;;;21.89;74.09;102298.16;5079948;28;20024;-70
2023/06/24 08:36:37;;;;;;;17.33;4.80;;;;;;;21.99;73.06;102301.53;5104390;28;20028;-66
2023/06/24 08:39:02;;;;;;;18.85;4.90;;;;;;;22.05;72.06;102304.13;5102835;28;20039;-68
2023/06/24 08:41:28;;;;;;;16.00;4.35;;;;;;;22.13;69.77;102303.94;5103617;28;20382;-62
2023/06/24 08:43:56;;;;;;;14.43;4.20;;;;;;;22.25;69.24;102299.19;5104171;28;20078;-62
2023/06/24 08:46:24;;;;;;;14.52;4.43;;;;;;;22.41;69.93;102299.78;5102612;28;20063;-70
2023/06/24 08:49:12;;;;;;;14.85;4.05;;;;;;;22.45;64.54;102297.88;5104941;28;20065;-62
2023/06/24 08:51:41;;;;;;;13.07;4.13;;;;;;;22.60;70.73;102300.25;5104971;28;20026;-65
2023/06/24 08:54:09;;;;;;;11.43;3.90;;;;;;;22.67;62.97;102300.97;5102275;28;20067;-68
2023/06/24 08:56:38;;;;;;;13.25;4.10;;;;;;;22.65;61.28;102299.25;5104274;28;20048;-69
2023/06/24 08:59:05;;;;;;;9.30;3.40;;;;;;;22.73;61.58;102299.94;5102836;28;20385;-67
2023/06/24 09:01:31;;;;;;;10.65;3.78;;;;;;;22.83;61.10;102306.88;5103761;28;20024;-67
2023/06/24 09:03:56;;;;;;;12.30;3.78;;;;;;;22.84;62.67;102303.25;5085369;28;20031;-65
2023/06/24 09:06:22;;;;;;;11.45;3.50;;;;;;;22.78;58.61;102296.22;5102510;28;20390;-69
2023/06/24 09:08:54;;;;;;;13.07;4.05;;;;;;;22.94;65.13;102306.63;5104810;28;20084;-66
2023/06/24 09:11:27;;;;;;;14.02;4.00;;;;;;;22.91;61.96;102310.28;5084010;28;20076;-71
2023/06/24 09:13:56;;;;;;;12.55;4.00;;;;;;;22.93;61.75;102302.16;5103827;28;20055;-63
2023/06/24 09:16:22;;;;;;;12.02;4.18;;;;;;;22.93;63.48;102297.63;5102194;28;20043;-67
2023/06/24 09:18:52;;;;;;;11.25;3.83;;;;;;;23.00;60.27;102298.38;5104885;28;20073;-70
2023/06/24 09:21:30;;;;;;;11.95;4.10;;;;;;;23.06;62.55;102298.22;5101314;28;20051;-65
2023/06/24 09:23:57;;;;;;;11.82;3.90;;;;;;;23.33;64.19;102285.88;5103522;28;20039;-62
2023/06/24 09:26:24;;;;;;;13.80;4.15;;;;;;;23.63;60.98;102276.97;5102301;28;20028;-70
2023/06/24 09:28:49;;;;;;;15.63;4.20;;;;;;;23.83;57.53;102289.91;5104282;28;20513;-68
2023/06/24 09:31:15;;;;;;;14.18;4.00;;;;;;;23.77;57.27;102279.31;5101377;28;20036;-71
2023/06/24 09:33:40;;;;;;;11.93;3.88;;;;;;;23.89;58.90;102278.09;5104757;28;20114;-68
2023/06/24 09:36:06;;;;;;;12.32;4.10;;;;;;;24.04;57.41;102274.94;5101974;28;20577;-62
2023/06/24 09:38:33;;;;;;;12.25;4.20;;;;;;;24.10;59.13;102271.16;5103398;28;20450;-71
2023/06/24 09:41:06;;;;;;;14.00;4.38;;;;;;;24.25;56.45;102264.44;5102790;28;20034;-71
2023/06/24 09:43:42;;;;;;;11.25;3.83;;;;;;;24.41;58.51;102262.13;5085293;28;20036;-65
2023/06/24 09:46:08;;;;;;;13.18;3.72;;;;;;;24.44;53.91;102270.13;5101668;28;20027;-63
2023/06/24 09:48:34;;;;;;;12.20;3.83;;;;;;;24.57;52.48;102260.69;5103540;28;20028;-71
2023/06/24 09:51:01;;;;;;;8.70;3.40;;;;;;;24.64;48.42;102265.00;5102579;28;20078;-72
2023/06/24 09:53:34;;;;;;;13.13;4.25;;;;;;;24.81;54.76;102263.56;5102097;28;20020;-72
2023/06/24 09:56:01;;;;;;;13.57;4.07;;;;;;;24.81;51.47;102263.56;5084579;28;20073;-68
2023/06/24 09:58:35;;;;;;;12.90;3.60;;;;;;;24.79;51.99;102265.44;5102858;28;20021;-70
2023/06/24 10:01:04;;;;;;;10.90;3.55;;;;;;;24.87;48.88;102263.34;5103364;28;20115;-68
2023/06/24 10:03:32;;;;;;;12.38;3.80;;;;;;;25.01;48.66;102271.00;5102570;28;20123;-69
2023/06/24 10:05:59;;;;;;;11.95;3.72;;;;;;;25.27;49.34;102262.00;5102984;28;20059;-69
2023/06/24 10:08:25;;;;;;;10.93;3.50;;;;;;;26.07;47.79;102259.09;5101926;28;20058;-69
2023/06/24 10:10:50;;;;;;;11.02;3.70;;;;;;;27.46;45.63;102269.69;5103802;28;20066;-69
2023/06/24 10:13:15;;;;;;;11.32;4.03;;;;;;;28.58;42.26;102269.94;5100950;28;20432;-70
2023/06/24 10:15:41;;;;;;;12.90;4.20;;;;;;;29.81;39.13;102266.31;5104188;28;20028;-69
2023/06/24 10:18:33;;;;;;;13.05;3.92;;;;;;;30.60;39.98;102270.13;5101526;28;20119;-69
2023/06/24 10:20:58;;;;;;;10.77;3.70;;;;;;;30.86;37.20;102257.66;5100415;28;20433;-70
2023/06/24 10:23:30;;;;;;;10.48;3.70;;;;;;;32.14;36.46;102265.31;5103233;28;20031;-69
2023/06/24 10:25:55;;;;;;;;;;;;;;;33.72;36.25;102269.19;5102622;28;20038;-69
2023/06/24 10:28:21;;;;;;;10.63;3.90;;;;;;;34.16;32.08;102256.00;5103553;28;20010;-69
2023/06/24 10:30:56;;;;;;;12.32;4.07;;;;;;;34.51;33.31;102258.84;5100768;28;20304;-71
2023/06/24 10:33:24;;;;;;;11.18;3.90;;;;;;;33.95;31.67;102256.59;5098616;28;20491;-69
2023/06/24 10:35:50;;;;;;;10.95;3.95;;;;;;;33.98;31.54;102253.63;5104274;28;20073;-69
2023/06/24 10:38:16;;;;;;;11.32;3.95;;;;;;;33.93;32.19;102250.34;5104319;28;20066;-70
2023/06/24 10:40:44;;;;;;;11.20;3.90;;;;;;;34.36;30.19;102244.44;5107651;28;20031;-68
2023/06/24 10:43:27;;;;;;;8.98;3.53;;;;;;;34.92;32.06;102245.72;5104630;28;20355;-73
2023/06/24 10:45:55;;;;;;;10.07;3.60;;;;;;;35.13;30.43;102248.66;5102425;28;20036;-73
2023/06/24 10:48:21;;;;;;;9.48;3.55;;;;;;;35.51;29.55;102243.91;5107259;28;20035;-70
2023/06/24 10:50:47;;;;;;;11.10;3.58;;;;;;;36.12;28.32;102240.78;5104367;28;20028;-69
2023/06/24 10:53:13;;;;;;;11.80;3.78;;;;;;;36.76;27.20;102242.72;5099906;28;20031;-72
2023/06/24 10:55:39;;;;;;;9.93;3.90;;;;;;;37.26;27.49;102241.25;5107018;28;20038;-71
2023/06/24 10:58:12;;;;;;;9.38;3.80;;;;;;;36.11;27.57;102245.38;5105268;28;20023;-73
2023/06/24 11:00:38;;;;;;;10.77;3.70;;;;;;;36.16;28.58;102234.03;5106778;28;20027;-73
2023/06/24 11:03:11;;;;;;;11.27;3.78;;;;;;;36.73;28.33;102237.47;5104995;28;20053;-68
2023/06/24 11:05:41;;;;;;;12.60;3.63;;;;;;;37.06;26.53;102240.22;5106797;28;20047;-69
2023/06/24 11:08:08;;;;;;;11.27;3.70;;;;;;;36.53;27.09;102232.81;5104948;28;20087;-70